ADDS METAR Data INFO
IDs: Format: Raw Decoded Include TAF

Data at: 2246 UTC 11 Dec 2017

PAWG 112156Z 13004KT 10SM SCT080 BKN100 OVC150 11/02 A3000 RMK AO2 SLP161 T01060017
PAWG 112056Z 08005G17KT 10SM SCT080 BKN100 OVC150 13/M01 A3002 RMK AO2 SLP166 T01281006 58002
PAWG 111956Z 12009G15KT 10SM SCT080 BKN100 OVC150 14/M03 A3002 RMK AO2 SLP166 T01441033
PAWG 111856Z 09005KT 10SM SCT080 BKN120 09/03 A3003 RMK AO2 SLP170 T00940028
PAWG 111756Z 09007KT 10SM SCT080 BKN120 09/03 A3003 RMK AO2 SLP168 60000 T00940028 10150 20094 50007
PAWG 111656Z 10007KT 10SM BKN080 OVC120 13/00 A3003 RMK AO2 SLP169 T01280000
PAWG 111555Z 09011G15KT 10SM BKN080 OVC120 12/01 A3002 RMK (KH)
PAWG 111455Z 09009KT 10SM BKN080 OVC120 12/02 A3000 RMK (KH)
PAWG 111156Z AUTO 11014G23KT 10SM OVC085 13/03 A2998 RMK AO2 SLP154 60020 70040 T01330033 10133 20089 58038 TSNO
PAWG 111056Z AUTO 09009KT 10SM SCT070 09/06 A3004 RMK AO2 SLP171 T00940061 TSNO
PAWG 110956Z AUTO 12007KT 10SM OVC070 09/07 A3007 RMK AO2 RAE14 SLP181 P0000 T00940067 TSNO
PAWG 110756Z AUTO 09014G21KT 10SM -RA BKN034 OVC050 11/07 A3008 RMK AO2 PK WND 09032/0726 SLP186 P0004 T01060072 TSNO
PAWG 110656Z 09014G20KT 10SM -RA BKN034 OVC050 11/08 A3005 RMK AO2 SLP176 P0012 T01110078
PAWG 110556Z 09011G22KT 10SM -RA BKN034 OVC050 11/08 A3003 RMK AO2 SLP168 P0007 60020 T01110078 10117 20078 50006
PAWG 110456Z 08009KT 8SM RA BKN039 OVC050 08/07 A3003 RMK AO2 SLP169 P0006 T00830072
PAWG 110356Z 12010G18KT 10SM RA BKN050 OVC070 11/07 A3003 RMK AO2 SLP169 P0004 T01110072
PAWG 110256Z 17009G20KT 110V220 10SM -RA BKN055 OVC070 11/07 A3001 RMK AO2 SLP163 P0002 60003 T01110067 56030
PAWG 110156Z COR 06005KT 10SM -RA BKN050 OVC070 08/06 A3001 RMK PRESFR (MCQ)
PAWG 110056Z 10007G17KT 10SM -RA BKN055 OVC070 11/05 A3007 RMK AO2 RAB18 SLP184 P0000 T01060050
PAWG 102356Z 08010KT 10SM BKN055 OVC070 09/04 A3010 RMK (MCQ)
PAWG 102256Z COR 00000KT 10SM BKN045 OVC070 08/04 A3014 RMK PRESFR (MCQ)
PAWG 102156Z 12007KT 10SM OVC060 08/04 A3021 RMK (KB)
PAWG 102056Z 08005KT 10SM BKN060 BKN120 07/04 A3025 RMK (KB)
PAWG 101956Z 08005KT 10SM BKN060 SCT120 07/04 A3026 RMK (KB)
PAWG 101856Z 11007KT 10SM SCT060 OVC120 07/04 A3025 RMK (KB)
PAWG 101756Z 10007KT 10SM SCT060 OVC120 06/04 A3028 RMK (KB)
PAWG 101656Z 09007KT 10SM FEW050 06/04 A3028 RMK (KB)
PAWG 101556Z 10007KT 10SM FEW050 06/04 A3029 RMK (KB)
PAWG 101456Z 11007KT 10SM FEW075 06/05 A3030 RMK (KB)
PAWG 101356Z AUTO 10005KT 10SM CLR 06/05 A3031 RMK AO2 SLP263 T00610050 TSNO
PAWG 101256Z AUTO 08007KT 10SM OVC060 07/06 A3030 RMK AO2 SLP262 T00670056 TSNO
PAWG 101056Z AUTO 00000KT 10SM OVC055 07/06 A3028 RMK AO2 SLP255 T00670056 TSNO